sensor_id;sensor_type;location;lat;lon;timestamp;temperature;humidity
12771;DHT22;6449;47.666;9.160;2022-08-19T00:09:45;18.10;99.90
12771;DHT22;6449;47.666;9.160;2022-08-19T00:14:39;18.10;99.90
12771;DHT22;6449;47.666;9.160;2022-08-19T00:19:33;18.20;99.90
12771;DHT22;6449;47.666;9.160;2022-08-19T00:24:26;18.20;99.90
12771;DHT22;6449;47.666;9.160;2022-08-19T00:29:23;18.20;99.90
12771;DHT22;6449;47.666;9.160;2022-08-19T00:34:17;18.20;99.90
12771;DHT22;6449;47.666;9.160;2022-08-19T00:39:11;18.20;99.90
12771;DHT22;6449;47.666;9.160;2022-08-19T00:44:09;18.20;99.90
12771;DHT22;6449;47.666;9.160;2022-08-19T00:49:12;18.30;99.90
12771;DHT22;6449;47.666;9.160;2022-08-19T00:54:09;18.20;99.90
12771;DHT22;6449;47.666;9.160;2022-08-19T00:59:04;18.20;99.90
12771;DHT22;6449;47.666;9.160;2022-08-19T01:04:00;18.10;99.90
12771;DHT22;6449;47.666;9.160;2022-08-19T01:08:55;18.10;99.90
12771;DHT22;6449;47.666;9.160;2022-08-19T01:13:50;18.10;99.90
12771;DHT22;6449;47.666;9.160;2022-08-19T01:18:46;18.00;99.90
12771;DHT22;6449;47.666;9.160;2022-08-19T01:23:42;18.10;99.90
12771;DHT22;6449;47.666;9.160;2022-08-19T01:28:36;18.10;99.90
12771;DHT22;6449;47.666;9.160;2022-08-19T01:33:33;18.10;99.90
12771;DHT22;6449;47.666;9.160;2022-08-19T01:38:27;18.10;99.90
12771;DHT22;6449;47.666;9.160;2022-08-19T01:43:24;18.10;99.90
12771;DHT22;6449;47.666;9.160;2022-08-19T01:48:18;18.10;99.90
12771;DHT22;6449;47.666;9.160;2022-08-19T01:53:11;18.10;99.90
12771;DHT22;6449;47.666;9.160;2022-08-19T01:58:06;18.10;99.90
12771;DHT22;6449;47.666;9.160;2022-08-19T02:03:05;18.10;99.90
12771;DHT22;6449;47.666;9.160;2022-08-19T02:08:01;18.10;99.90
12771;DHT22;6449;47.666;9.160;2022-08-19T02:12:54;18.10;99.90
12771;DHT22;6449;47.666;9.160;2022-08-19T02:17:48;18.10;99.90
12771;DHT22;6449;47.666;9.160;2022-08-19T02:22:43;18.10;99.90
12771;DHT22;6449;47.666;9.160;2022-08-19T02:27:37;18.10;99.90
12771;DHT22;6449;47.666;9.160;2022-08-19T02:32:30;18.10;99.90
12771;DHT22;6449;47.666;9.160;2022-08-19T02:37:25;18.10;99.90
12771;DHT22;6449;47.666;9.160;2022-08-19T02:42:37;18.10;99.90
12771;DHT22;6449;47.666;9.160;2022-08-19T02:47:32;18.10;99.90
12771;DHT22;6449;47.666;9.160;2022-08-19T02:52:26;18.10;99.90
12771;DHT22;6449;47.666;9.160;2022-08-19T02:57:19;18.20;99.90
12771;DHT22;6449;47.666;9.160;2022-08-19T03:02:15;18.10;99.90
12771;DHT22;6449;47.666;9.160;2022-08-19T03:07:13;18.10;99.90
12771;DHT22;6449;47.666;9.160;2022-08-19T03:12:09;18.10;99.90
12771;DHT22;6449;47.666;9.160;2022-08-19T03:17:04;18.10;99.90
12771;DHT22;6449;47.666;9.160;2022-08-19T03:21:58;18.10;99.90
12771;DHT22;6449;47.666;9.160;2022-08-19T03:26:54;18.10;99.90
12771;DHT22;6449;47.666;9.160;2022-08-19T03:31:49;18.10;99.90
12771;DHT22;6449;47.666;9.160;2022-08-19T03:36:44;18.10;99.90
12771;DHT22;6449;47.666;9.160;2022-08-19T03:41:42;18.10;99.90
12771;DHT22;6449;47.666;9.160;2022-08-19T03:46:39;18.10;99.90
12771;DHT22;6449;47.666;9.160;2022-08-19T03:51:37;18.10;99.90
12771;DHT22;6449;47.666;9.160;2022-08-19T03:56:33;18.10;99.90
12771;DHT22;6449;47.666;9.160;2022-08-19T04:01:29;18.10;99.90
12771;DHT22;6449;47.666;9.160;2022-08-19T04:06:29;18.10;99.90
12771;DHT22;6449;47.666;9.160;2022-08-19T04:11:26;18.10;99.90
12771;DHT22;6449;47.666;9.160;2022-08-19T04:16:36;18.10;99.90
12771;DHT22;6449;47.666;9.160;2022-08-19T04:21:30;18.00;99.90
12771;DHT22;6449;47.666;9.160;2022-08-19T04:26:25;18.10;99.90
12771;DHT22;6449;47.666;9.160;2022-08-19T04:31:25;18.10;99.90
12771;DHT22;6449;47.666;9.160;2022-08-19T04:36:23;18.10;99.90
12771;DHT22;6449;47.666;9.160;2022-08-19T04:41:18;18.20;99.90
12771;DHT22;6449;47.666;9.160;2022-08-19T04:46:29;18.20;99.90
12771;DHT22;6449;47.666;9.160;2022-08-19T04:51:33;18.20;99.90
12771;DHT22;6449;47.666;9.160;2022-08-19T04:56:29;18.10;99.90
12771;DHT22;6449;47.666;9.160;2022-08-19T05:01:24;18.10;99.90
12771;DHT22;6449;47.666;9.160;2022-08-19T05:06:22;18.10;99.90
12771;DHT22;6449;47.666;9.160;2022-08-19T05:11:20;18.20;99.90
12771;DHT22;6449;47.666;9.160;2022-08-19T05:16:19;18.20;99.90
12771;DHT22;6449;47.666;9.160;2022-08-19T05:21:17;18.20;99.90
12771;DHT22;6449;47.666;9.160;2022-08-19T05:26:31;18.10;99.90
12771;DHT22;6449;47.666;9.160;2022-08-19T05:31:24;18.10;99.90
12771;DHT22;6449;47.666;9.160;2022-08-19T05:36:17;18.10;99.90
12771;DHT22;6449;47.666;9.160;2022-08-19T05:41:15;18.10;99.90
12771;DHT22;6449;47.666;9.160;2022-08-19T05:46:16;18.00;99.90
12771;DHT22;6449;47.666;9.160;2022-08-19T05:51:18;17.90;99.90
12771;DHT22;6449;47.666;9.160;2022-08-19T05:56:14;17.90;99.90
12771;DHT22;6449;47.666;9.160;2022-08-19T06:01:12;17.80;99.90
12771;DHT22;6449;47.666;9.160;2022-08-19T06:06:10;17.70;99.90
12771;DHT22;6449;47.666;9.160;2022-08-19T06:11:24;17.70;99.90
12771;DHT22;6449;47.666;9.160;2022-08-19T06:16:27;17.70;99.90
12771;DHT22;6449;47.666;9.160;2022-08-19T06:21:23;17.70;99.90
12771;DHT22;6449;47.666;9.160;2022-08-19T06:26:19;17.70;99.90
12771;DHT22;6449;47.666;9.160;2022-08-19T06:31:14;17.70;99.90
12771;DHT22;6449;47.666;9.160;2022-08-19T06:36:18;17.70;99.90
12771;DHT22;6449;47.666;9.160;2022-08-19T06:41:16;17.80;99.90
12771;DHT22;6449;47.666;9.160;2022-08-19T06:46:12;17.80;99.90
12771;DHT22;6449;47.666;9.160;2022-08-19T06:51:06;17.70;99.90
12771;DHT22;6449;47.666;9.160;2022-08-19T06:56:01;17.80;99.90
12771;DHT22;6449;47.666;9.160;2022-08-19T07:00:55;17.90;99.90
12771;DHT22;6449;47.666;9.160;2022-08-19T07:05:49;18.00;99.90
12771;DHT22;6449;47.666;9.160;2022-08-19T07:10:43;18.00;99.90
12771;DHT22;6449;47.666;9.160;2022-08-19T07:15:39;18.00;99.90
12771;DHT22;6449;47.666;9.160;2022-08-19T07:20:33;18.00;99.90
12771;DHT22;6449;47.666;9.160;2022-08-19T07:25:27;18.00;99.90
12771;DHT22;6449;47.666;9.160;2022-08-19T07:30:24;18.00;99.90
12771;DHT22;6449;47.666;9.160;2022-08-19T07:35:19;18.00;99.90
12771;DHT22;6449;47.666;9.160;2022-08-19T07:40:13;17.90;99.90
12771;DHT22;6449;47.666;9.160;2022-08-19T07:45:07;18.00;99.90
12771;DHT22;6449;47.666;9.160;2022-08-19T07:50:02;18.00;99.90
12771;DHT22;6449;47.666;9.160;2022-08-19T07:55:00;18.00;99.90
12771;DHT22;6449;47.666;9.160;2022-08-19T07:59:55;18.00;99.90
12771;DHT22;6449;47.666;9.160;2022-08-19T08:04:48;17.90;99.90
12771;DHT22;6449;47.666;9.160;2022-08-19T08:10:01;17.90;99.90
12771;DHT22;6449;47.666;9.160;2022-08-19T08:14:56;17.90;99.90
12771;DHT22;6449;47.666;9.160;2022-08-19T08:19:53;17.90;99.90
12771;DHT22;6449;47.666;9.160;2022-08-19T08:24:46;17.80;99.90
12771;DHT22;6449;47.666;9.160;2022-08-19T08:29:42;17.80;99.90
12771;DHT22;6449;47.666;9.160;2022-08-19T08:34:36;17.80;99.90
12771;DHT22;6449;47.666;9.160;2022-08-19T08:39:29;17.80;99.90
12771;DHT22;6449;47.666;9.160;2022-08-19T08:44:29;17.80;99.90
12771;DHT22;6449;47.666;9.160;2022-08-19T08:49:41;17.70;99.90
12771;DHT22;6449;47.666;9.160;2022-08-19T08:54:43;17.70;99.90
12771;DHT22;6449;47.666;9.160;2022-08-19T08:59:47;17.60;99.90
12771;DHT22;6449;47.666;9.160;2022-08-19T09:04:45;17.70;99.90
12771;DHT22;6449;47.666;9.160;2022-08-19T09:09:42;17.70;99.90
12771;DHT22;6449;47.666;9.160;2022-08-19T09:14:45;17.70;99.90
12771;DHT22;6449;47.666;9.160;2022-08-19T09:19:54;17.70;99.90
12771;DHT22;6449;47.666;9.160;2022-08-19T09:24:49;17.60;99.90
12771;DHT22;6449;47.666;9.160;2022-08-19T09:29:46;17.50;99.90
12771;DHT22;6449;47.666;9.160;2022-08-19T09:34:40;17.50;99.90
12771;DHT22;6449;47.666;9.160;2022-08-19T09:39:43;17.50;99.90
12771;DHT22;6449;47.666;9.160;2022-08-19T09:44:37;17.50;99.90
12771;DHT22;6449;47.666;9.160;2022-08-19T09:49:30;17.50;99.90
12771;DHT22;6449;47.666;9.160;2022-08-19T09:54:24;17.50;99.90
12771;DHT22;6449;47.666;9.160;2022-08-19T09:59:20;17.50;99.90
12771;DHT22;6449;47.666;9.160;2022-08-19T10:04:14;17.40;99.90
12771;DHT22;6449;47.666;9.160;2022-08-19T10:09:14;17.30;99.90
12771;DHT22;6449;47.666;9.160;2022-08-19T10:14:25;17.30;99.90
12771;DHT22;6449;47.666;9.160;2022-08-19T10:19:19;17.30;99.90
12771;DHT22;6449;47.666;9.160;2022-08-19T10:24:16;17.20;99.90
12771;DHT22;6449;47.666;9.160;2022-08-19T10:29:10;17.20;99.90
12771;DHT22;6449;47.666;9.160;2022-08-19T10:34:25;17.20;99.90
12771;DHT22;6449;47.666;9.160;2022-08-19T10:39:21;17.10;99.90
12771;DHT22;6449;47.666;9.160;2022-08-19T10:44:21;17.10;99.90
12771;DHT22;6449;47.666;9.160;2022-08-19T10:49:22;17.10;99.90
12771;DHT22;6449;47.666;9.160;2022-08-19T10:54:18;17.10;99.90
12771;DHT22;6449;47.666;9.160;2022-08-19T10:59:27;17.30;99.90
12771;DHT22;6449;47.666;9.160;2022-08-19T11:04:28;17.30;99.90
12771;DHT22;6449;47.666;9.160;2022-08-19T11:09:25;17.30;99.90
12771;DHT22;6449;47.666;9.160;2022-08-19T11:14:25;17.30;99.90
12771;DHT22;6449;47.666;9.160;2022-08-19T11:19:22;17.30;99.90
12771;DHT22;6449;47.666;9.160;2022-08-19T11:24:18;17.40;99.90
12771;DHT22;6449;47.666;9.160;2022-08-19T11:29:15;17.30;99.90
12771;DHT22;6449;47.666;9.160;2022-08-19T11:34:13;17.30;99.90
12771;DHT22;6449;47.666;9.160;2022-08-19T11:39:10;17.30;99.90
12771;DHT22;6449;47.666;9.160;2022-08-19T11:44:05;17.30;99.90
12771;DHT22;6449;47.666;9.160;2022-08-19T11:49:01;17.30;99.90
12771;DHT22;6449;47.666;9.160;2022-08-19T11:54:00;17.30;99.90
12771;DHT22;6449;47.666;9.160;2022-08-19T11:58:54;17.20;99.90
12771;DHT22;6449;47.666;9.160;2022-08-19T12:03:50;17.10;99.90
12771;DHT22;6449;47.666;9.160;2022-08-19T12:08:47;17.10;99.90
12771;DHT22;6449;47.666;9.160;2022-08-19T12:13:41;17.10;99.90
12771;DHT22;6449;47.666;9.160;2022-08-19T12:18:36;17.10;99.90
12771;DHT22;6449;47.666;9.160;2022-08-19T12:23:29;17.10;99.90
12771;DHT22;6449;47.666;9.160;2022-08-19T12:28:25;17.10;99.90
12771;DHT22;6449;47.666;9.160;2022-08-19T12:33:19;17.10;99.90
12771;DHT22;6449;47.666;9.160;2022-08-19T12:38:16;17.20;99.90
12771;DHT22;6449;47.666;9.160;2022-08-19T12:43:09;17.10;99.90
12771;DHT22;6449;47.666;9.160;2022-08-19T12:48:06;17.20;99.90
12771;DHT22;6449;47.666;9.160;2022-08-19T12:53:19;17.20;99.90
12771;DHT22;6449;47.666;9.160;2022-08-19T12:58:12;17.20;99.90
12771;DHT22;6449;47.666;9.160;2022-08-19T13:03:07;17.20;99.90
12771;DHT22;6449;47.666;9.160;2022-08-19T13:08:01;17.20;99.90
12771;DHT22;6449;47.666;9.160;2022-08-19T13:12:55;17.20;99.90
12771;DHT22;6449;47.666;9.160;2022-08-19T13:17:52;17.20;99.90
12771;DHT22;6449;47.666;9.160;2022-08-19T13:22:49;17.20;99.90
12771;DHT22;6449;47.666;9.160;2022-08-19T13:27:44;17.30;99.90
12771;DHT22;6449;47.666;9.160;2022-08-19T13:32:37;17.40;99.90
12771;DHT22;6449;47.666;9.160;2022-08-19T13:37:49;17.40;99.90
12771;DHT22;6449;47.666;9.160;2022-08-19T13:42:44;17.50;99.90
12771;DHT22;6449;47.666;9.160;2022-08-19T13:47:40;17.60;99.90
12771;DHT22;6449;47.666;9.160;2022-08-19T13:52:35;17.60;99.90
12771;DHT22;6449;47.666;9.160;2022-08-19T13:57:30;17.70;99.90
12771;DHT22;6449;47.666;9.160;2022-08-19T14:02:24;17.70;99.90
12771;DHT22;6449;47.666;9.160;2022-08-19T14:07:18;17.70;99.90
12771;DHT22;6449;47.666;9.160;2022-08-19T14:12:18;17.70;99.90
12771;DHT22;6449;47.666;9.160;2022-08-19T14:17:21;17.70;99.90
12771;DHT22;6449;47.666;9.160;2022-08-19T14:22:14;17.60;99.90
12771;DHT22;6449;47.666;9.160;2022-08-19T14:27:13;17.60;99.90
12771;DHT22;6449;47.666;9.160;2022-08-19T14:32:06;17.70;99.90
12771;DHT22;6449;47.666;9.160;2022-08-19T14:37:08;17.70;99.90
12771;DHT22;6449;47.666;9.160;2022-08-19T14:42:06;17.60;99.90
12771;DHT22;6449;47.666;9.160;2022-08-19T14:47:02;17.70;99.90
12771;DHT22;6449;47.666;9.160;2022-08-19T14:52:00;17.60;99.90
12771;DHT22;6449;47.666;9.160;2022-08-19T14:56:55;17.70;99.90
12771;DHT22;6449;47.666;9.160;2022-08-19T15:01:49;17.80;99.90
12771;DHT22;6449;47.666;9.160;2022-08-19T15:06:43;17.80;99.90
12771;DHT22;6449;47.666;9.160;2022-08-19T15:11:36;17.80;99.90
12771;DHT22;6449;47.666;9.160;2022-08-19T15:16:32;17.80;99.90
12771;DHT22;6449;47.666;9.160;2022-08-19T15:21:26;17.90;99.90
12771;DHT22;6449;47.666;9.160;2022-08-19T15:26:20;17.90;99.90
12771;DHT22;6449;47.666;9.160;2022-08-19T15:31:17;17.80;99.90
12771;DHT22;6449;47.666;9.160;2022-08-19T15:36:20;17.80;99.90
12771;DHT22;6449;47.666;9.160;2022-08-19T15:41:17;17.80;99.90
12771;DHT22;6449;47.666;9.160;2022-08-19T15:46:17;17.70;99.90
12771;DHT22;6449;47.666;9.160;2022-08-19T15:51:12;17.70;99.90
12771;DHT22;6449;47.666;9.160;2022-08-19T15:56:08;17.70;99.90
12771;DHT22;6449;47.666;9.160;2022-08-19T16:01:03;17.70;99.90
12771;DHT22;6449;47.666;9.160;2022-08-19T16:06:18;17.80;99.90
12771;DHT22;6449;47.666;9.160;2022-08-19T16:11:23;17.80;99.90
12771;DHT22;6449;47.666;9.160;2022-08-19T16:16:21;17.80;99.90
12771;DHT22;6449;47.666;9.160;2022-08-19T16:21:25;17.90;99.90
12771;DHT22;6449;47.666;9.160;2022-08-19T16:26:24;17.90;99.90
12771;DHT22;6449;47.666;9.160;2022-08-19T16:31:23;17.90;99.90
12771;DHT22;6449;47.666;9.160;2022-08-19T16:36:17;17.90;99.90
12771;DHT22;6449;47.666;9.160;2022-08-19T16:41:12;17.90;99.90
12771;DHT22;6449;47.666;9.160;2022-08-19T16:46:07;17.90;99.90
12771;DHT22;6449;47.666;9.160;2022-08-19T16:51:01;17.90;99.90
12771;DHT22;6449;47.666;9.160;2022-08-19T16:55:59;17.80;99.90
12771;DHT22;6449;47.666;9.160;2022-08-19T17:00:52;17.80;99.90
12771;DHT22;6449;47.666;9.160;2022-08-19T17:05:54;17.90;99.90
12771;DHT22;6449;47.666;9.160;2022-08-19T17:10:49;17.80;99.90
12771;DHT22;6449;47.666;9.160;2022-08-19T17:16:03;17.80;99.90
12771;DHT22;6449;47.666;9.160;2022-08-19T17:20:59;17.80;99.90
12771;DHT22;6449;47.666;9.160;2022-08-19T17:25:54;17.70;99.90
12771;DHT22;6449;47.666;9.160;2022-08-19T17:30:48;17.70;99.90
12771;DHT22;6449;47.666;9.160;2022-08-19T17:35:43;17.70;99.90
12771;DHT22;6449;47.666;9.160;2022-08-19T17:40:46;17.60;99.90
12771;DHT22;6449;47.666;9.160;2022-08-19T17:45:42;17.60;99.90
12771;DHT22;6449;47.666;9.160;2022-08-19T17:50:36;17.60;99.90
12771;DHT22;6449;47.666;9.160;2022-08-19T17:55:37;17.70;99.90
12771;DHT22;6449;47.666;9.160;2022-08-19T18:00:33;17.60;99.90
12771;DHT22;6449;47.666;9.160;2022-08-19T18:05:29;17.50;99.90
12771;DHT22;6449;47.666;9.160;2022-08-19T18:10:26;17.40;99.90
12771;DHT22;6449;47.666;9.160;2022-08-19T18:15:26;17.30;99.90
12771;DHT22;6449;47.666;9.160;2022-08-19T18:20:22;17.40;99.90
12771;DHT22;6449;47.666;9.160;2022-08-19T18:25:18;17.30;99.90
12771;DHT22;6449;47.666;9.160;2022-08-19T18:30:15;17.30;99.90
12771;DHT22;6449;47.666;9.160;2022-08-19T18:35:11;17.30;99.90
12771;DHT22;6449;47.666;9.160;2022-08-19T18:40:12;17.30;99.90
12771;DHT22;6449;47.666;9.160;2022-08-19T18:45:25;17.30;99.90
12771;DHT22;6449;47.666;9.160;2022-08-19T18:50:36;17.20;99.90
12771;DHT22;6449;47.666;9.160;2022-08-19T18:55:33;17.20;99.90
12771;DHT22;6449;47.666;9.160;2022-08-19T19:00:28;17.20;99.90
12771;DHT22;6449;47.666;9.160;2022-08-19T19:05:23;17.30;99.90
12771;DHT22;6449;47.666;9.160;2022-08-19T19:10:18;17.10;99.90
12771;DHT22;6449;47.666;9.160;2022-08-19T19:15:13;17.20;99.90
12771;DHT22;6449;47.666;9.160;2022-08-19T19:20:08;17.10;99.90
12771;DHT22;6449;47.666;9.160;2022-08-19T19:25:01;17.10;99.90
12771;DHT22;6449;47.666;9.160;2022-08-19T19:29:59;17.20;99.90
12771;DHT22;6449;47.666;9.160;2022-08-19T19:35:05;17.20;99.90
12771;DHT22;6449;47.666;9.160;2022-08-19T19:40:06;17.20;99.90
12771;DHT22;6449;47.666;9.160;2022-08-19T19:45:08;17.20;99.90
12771;DHT22;6449;47.666;9.160;2022-08-19T19:50:04;17.20;99.90
12771;DHT22;6449;47.666;9.160;2022-08-19T19:55:14;17.20;99.90
12771;DHT22;6449;47.666;9.160;2022-08-19T20:00:20;17.20;99.90
12771;DHT22;6449;47.666;9.160;2022-08-19T20:05:26;17.10;99.90
12771;DHT22;6449;47.666;9.160;2022-08-19T20:10:22;17.10;99.90
12771;DHT22;6449;47.666;9.160;2022-08-19T20:15:21;17.10;99.90
12771;DHT22;6449;47.666;9.160;2022-08-19T20:20:19;17.10;99.90
12771;DHT22;6449;47.666;9.160;2022-08-19T20:25:14;17.10;99.90
12771;DHT22;6449;47.666;9.160;2022-08-19T20:30:22;17.10;99.90
12771;DHT22;6449;47.666;9.160;2022-08-19T20:35:36;17.20;99.90
12771;DHT22;6449;47.666;9.160;2022-08-19T20:40:30;17.20;99.90
12771;DHT22;6449;47.666;9.160;2022-08-19T20:45:29;17.20;99.90
12771;DHT22;6449;47.666;9.160;2022-08-19T20:50:24;17.20;99.90
12771;DHT22;6449;47.666;9.160;2022-08-19T20:55:22;17.30;99.90
12771;DHT22;6449;47.666;9.160;2022-08-19T21:00:16;17.20;99.90
12771;DHT22;6449;47.666;9.160;2022-08-19T21:05:10;17.20;99.90
12771;DHT22;6449;47.666;9.160;2022-08-19T21:10:05;17.20;99.90
12771;DHT22;6449;47.666;9.160;2022-08-19T21:15:01;17.20;99.90
12771;DHT22;6449;47.666;9.160;2022-08-19T21:19:55;17.20;99.90
12771;DHT22;6449;47.666;9.160;2022-08-19T21:24:49;17.20;99.90
12771;DHT22;6449;47.666;9.160;2022-08-19T21:29:42;17.20;99.90
12771;DHT22;6449;47.666;9.160;2022-08-19T21:34:38;17.20;99.90
12771;DHT22;6449;47.666;9.160;2022-08-19T21:39:34;17.20;99.90
12771;DHT22;6449;47.666;9.160;2022-08-19T21:44:28;17.10;99.90
12771;DHT22;6449;47.666;9.160;2022-08-19T21:49:21;17.10;99.90
12771;DHT22;6449;47.666;9.160;2022-08-19T21:54:16;17.20;99.90
12771;DHT22;6449;47.666;9.160;2022-08-19T21:59:09;17.20;99.90
12771;DHT22;6449;47.666;9.160;2022-08-19T22:04:03;17.20;99.90
12771;DHT22;6449;47.666;9.160;2022-08-19T22:08:56;17.20;99.90
12771;DHT22;6449;47.666;9.160;2022-08-19T22:13:52;17.10;99.90
12771;DHT22;6449;47.666;9.160;2022-08-19T22:18:47;17.10;99.90
12771;DHT22;6449;47.666;9.160;2022-08-19T22:23:41;17.10;99.90
12771;DHT22;6449;47.666;9.160;2022-08-19T22:28:35;17.10;99.90
12771;DHT22;6449;47.666;9.160;2022-08-19T22:33:31;17.10;99.90
12771;DHT22;6449;47.666;9.160;2022-08-19T22:38:27;17.10;99.90
12771;DHT22;6449;47.666;9.160;2022-08-19T22:43:22;17.10;99.90
12771;DHT22;6449;47.666;9.160;2022-08-19T22:48:19;17.00;99.90
12771;DHT22;6449;47.666;9.160;2022-08-19T22:53:15;17.00;99.90
12771;DHT22;6449;47.666;9.160;2022-08-19T22:58:08;17.00;99.90
12771;DHT22;6449;47.666;9.160;2022-08-19T23:03:02;17.10;99.90
12771;DHT22;6449;47.666;9.160;2022-08-19T23:07:56;17.10;99.90
12771;DHT22;6449;47.666;9.160;2022-08-19T23:12:51;17.10;99.90
12771;DHT22;6449;47.666;9.160;2022-08-19T23:17:45;17.10;99.90
12771;DHT22;6449;47.666;9.160;2022-08-19T23:22:38;17.10;99.90
12771;DHT22;6449;47.666;9.160;2022-08-19T23:27:32;17.00;99.90
12771;DHT22;6449;47.666;9.160;2022-08-19T23:33:04;17.00;99.90
12771;DHT22;6449;47.666;9.160;2022-08-19T23:38:05;17.00;99.90
12771;DHT22;6449;47.666;9.160;2022-08-19T23:43:00;17.00;99.90
12771;DHT22;6449;47.666;9.160;2022-08-19T23:48:00;17.00;99.90
12771;DHT22;6449;47.666;9.160;2022-08-19T23:52:56;17.00;99.90
12771;DHT22;6449;47.666;9.160;2022-08-19T23:57:53;17.00;99.90
